Kenora, Canada
Current Conditions -  °F | °C
As of 10:00 AM on Thursday 30 Oct 2014 (Local Time) from CYQK Reporting Station
Rain Showers Rain Showers  
Wind Chill: 27°   Ceiling: 3000
Heat Index: 34°   Visibility: 12mi
Dew Point: 32°   Wind: 8mph
Humidity: 93%   Direction: 310°NW
Pressure: 30.12"   Gusts: NA
Location:  49.77°N, 94.46°W
Report Text: CYQK 301500Z 31007KT 12SM VCSH FEW008 SCT015 BKN030 OVC052 01/M00 A3012 RMK SF2SC1SC3SC2 SLP220
Loading
Personal Weather Stations






























Interactive Weather Map
Tropical Storm Tracking
New forecast layout! Learn more

10-Day Weather Forecast

Advertisements
Track Severe Weather on mobile